createdAt,value
2022-08-04T00:00:59.622Z,1009.25
2022-08-04T00:01:59.687Z,1009.23
2022-08-04T00:02:59.663Z,1009.23
2022-08-04T00:03:59.580Z,1009.23
2022-08-04T00:04:59.566Z,1009.30
2022-08-04T00:05:59.613Z,1009.23
2022-08-04T00:06:59.562Z,1009.26
2022-08-04T00:07:59.544Z,1009.32
2022-08-04T00:08:59.529Z,1009.25
2022-08-04T00:09:59.613Z,1009.26
2022-08-04T00:10:59.499Z,1009.21
2022-08-04T00:11:59.510Z,1009.33
2022-08-04T00:12:59.509Z,1009.23
2022-08-04T00:14:02.913Z,1009.23
2022-08-04T00:14:59.459Z,1009.22
2022-08-04T00:15:59.444Z,1009.17
2022-08-04T00:16:59.508Z,1009.18
2022-08-04T00:17:59.420Z,1009.20
2022-08-04T00:18:59.410Z,1009.18
2022-08-04T00:19:59.403Z,1009.18
2022-08-04T00:20:59.414Z,1009.17
2022-08-04T00:21:59.400Z,1009.18
2022-08-04T00:22:59.363Z,1009.19
2022-08-04T00:24:12.081Z,1009.26
2022-08-04T00:25:00.391Z,1009.23
2022-08-04T00:25:59.336Z,1009.27
2022-08-04T00:26:59.343Z,1009.26
2022-08-04T00:27:59.319Z,1009.24
2022-08-04T00:28:59.332Z,1009.22
2022-08-04T00:29:59.302Z,1009.20
2022-08-04T00:30:59.301Z,1009.22
2022-08-04T00:31:59.292Z,1009.27
2022-08-04T00:32:59.279Z,1009.25
2022-08-04T00:33:59.251Z,1009.24
2022-08-04T00:34:59.305Z,1009.22
2022-08-04T00:35:59.216Z,1009.22
2022-08-04T00:36:59.273Z,1009.24
2022-08-04T00:37:59.197Z,1009.26
2022-08-04T00:38:59.245Z,1009.23
2022-08-04T00:39:59.178Z,1009.23
2022-08-04T00:40:59.260Z,1009.29
2022-08-04T00:41:59.161Z,1009.23
2022-08-04T00:42:59.677Z,1009.20
2022-08-04T00:43:59.136Z,1009.26
2022-08-04T00:44:59.127Z,1009.26
2022-08-04T00:46:09.509Z,1009.26
2022-08-04T00:47:00.166Z,1009.26
2022-08-04T00:47:59.103Z,1009.26
2022-08-04T00:48:59.073Z,1009.26
2022-08-04T00:49:59.066Z,1009.27
2022-08-04T00:50:59.078Z,1009.24
2022-08-04T00:52:30.771Z,1009.25
2022-08-04T00:53:00.052Z,1009.22
2022-08-04T00:53:59.032Z,1009.23
2022-08-04T00:54:59.047Z,1009.21
2022-08-04T00:55:59.098Z,1009.25
2022-08-04T00:56:59.003Z,1009.26
2022-08-04T00:57:58.982Z,1009.26
2022-08-04T00:58:59.090Z,1009.29
2022-08-04T00:59:58.949Z,1009.24
2022-08-04T01:00:59.026Z,1009.24
2022-08-04T01:01:58.935Z,1009.23
2022-08-04T01:02:58.923Z,1009.26
2022-08-04T01:03:58.907Z,1009.22
2022-08-04T01:04:58.928Z,1009.22
2022-08-04T01:05:58.891Z,1009.20
2022-08-04T01:06:58.874Z,1009.25
2022-08-04T01:07:58.931Z,1009.26
2022-08-04T01:08:58.852Z,1009.22
2022-08-04T01:09:58.871Z,1009.23
2022-08-04T01:10:58.826Z,1009.26
2022-08-04T01:11:58.822Z,1009.19
2022-08-04T01:12:58.809Z,1009.20
2022-08-04T01:13:58.796Z,1009.20
2022-08-04T01:14:58.780Z,1009.23
2022-08-04T01:16:00.624Z,1009.22
2022-08-04T01:16:58.757Z,1009.24
2022-08-04T01:17:58.750Z,1009.20
2022-08-04T01:18:58.735Z,1009.21
2022-08-04T01:19:58.725Z,1009.19
2022-08-04T01:20:58.723Z,1009.19
2022-08-04T01:21:58.798Z,1009.18
2022-08-04T01:22:58.695Z,1009.21
2022-08-04T01:23:58.683Z,1009.15
2022-08-04T01:24:58.674Z,1009.15
2022-08-04T01:25:58.674Z,1009.20
2022-08-04T01:26:58.776Z,1009.19
2022-08-04T01:27:58.639Z,1009.19
2022-08-04T01:28:58.678Z,1009.17
2022-08-04T01:29:58.614Z,1009.13
2022-08-04T01:30:58.600Z,1009.18
2022-08-04T01:31:58.634Z,1009.16
2022-08-04T01:32:58.618Z,1009.15
2022-08-04T01:34:03.717Z,1009.19
2022-08-04T01:34:59.561Z,1009.18
2022-08-04T01:35:58.638Z,1009.14
2022-08-04T01:36:58.580Z,1009.18
2022-08-04T01:37:58.550Z,1009.20
2022-08-04T01:38:58.549Z,1009.19
2022-08-04T01:39:58.491Z,1009.21
2022-08-04T01:40:58.549Z,1009.18
2022-08-04T01:41:58.811Z,1009.24
2022-08-04T01:42:58.481Z,1009.23
2022-08-04T01:43:58.527Z,1009.23
2022-08-04T01:44:58.462Z,1009.25
2022-08-04T01:45:58.429Z,1009.29
2022-08-04T01:46:58.423Z,1009.25
2022-08-04T01:47:58.427Z,1009.22
2022-08-04T01:48:58.401Z,1009.28
2022-08-04T01:49:58.381Z,1009.24
2022-08-04T01:50:58.455Z,1009.24
2022-08-04T01:51:58.363Z,1009.23
2022-08-04T01:52:58.362Z,1009.23
2022-08-04T01:53:58.346Z,1009.22
2022-08-04T01:54:58.331Z,1009.25
2022-08-04T01:55:58.311Z,1009.25
2022-08-04T01:56:58.316Z,1009.25
2022-08-04T01:57:58.311Z,1009.24
2022-08-04T01:58:58.283Z,1009.22
2022-08-04T01:59:58.275Z,1009.24
2022-08-04T02:00:58.370Z,1009.20
2022-08-04T02:01:58.419Z,1009.25
2022-08-04T02:02:58.263Z,1009.24
2022-08-04T02:04:18.242Z,1009.24
2022-08-04T02:04:59.271Z,1009.30
2022-08-04T02:06:03.058Z,1009.23
2022-08-04T02:06:59.193Z,1009.27
2022-08-04T02:07:58.171Z,1009.30
2022-08-04T02:08:58.179Z,1009.28
2022-08-04T02:09:58.155Z,1009.25
2022-08-04T02:10:58.138Z,1009.28
2022-08-04T02:11:58.208Z,1009.22
2022-08-04T02:12:58.124Z,1009.26
2022-08-04T02:13:58.129Z,1009.26
2022-08-04T02:14:58.105Z,1009.22
2022-08-04T02:15:58.089Z,1009.25
2022-08-04T02:16:58.072Z,1009.28
2022-08-04T02:17:58.063Z,1009.22
2022-08-04T02:18:58.085Z,1009.20
2022-08-04T02:19:58.037Z,1009.19
2022-08-04T02:20:58.105Z,1009.18
2022-08-04T02:21:58.022Z,1009.17
2022-08-04T02:22:58.008Z,1009.18
2022-08-04T02:23:58.011Z,1009.18
2022-08-04T02:24:57.991Z,1009.19
2022-08-04T02:25:57.981Z,1009.16
2022-08-04T02:26:57.979Z,1009.18
2022-08-04T02:27:59.704Z,1009.16
2022-08-04T02:28:58.052Z,1009.16
2022-08-04T02:29:57.926Z,1009.13
2022-08-04T02:30:57.913Z,1009.12
2022-08-04T02:31:57.925Z,1009.06
2022-08-04T02:32:57.895Z,1009.10
2022-08-04T02:33:57.898Z,1009.08
2022-08-04T02:34:57.875Z,1009.06
2022-08-04T02:35:57.855Z,1009.06
2022-08-04T02:36:57.852Z,1009.04
2022-08-04T02:37:57.875Z,1009.07
2022-08-04T02:38:57.945Z,1009.09
2022-08-04T02:39:57.813Z,1009.04
2022-08-04T02:40:58.864Z,1009.02
2022-08-04T02:41:57.795Z,1009.02
2022-08-04T02:42:57.775Z,1009.03
2022-08-04T02:43:57.816Z,1009.02
2022-08-04T02:44:57.821Z,1009.01
2022-08-04T02:45:57.767Z,1008.99
2022-08-04T02:46:57.750Z,1008.99
2022-08-04T02:48:29.567Z,1008.99
2022-08-04T02:48:58.750Z,1008.99
2022-08-04T02:49:57.699Z,1008.95
2022-08-04T02:50:57.697Z,1008.97
2022-08-04T02:51:57.697Z,1008.96
2022-08-04T02:52:57.663Z,1008.95
2022-08-04T02:53:57.661Z,1008.98
2022-08-04T02:54:57.657Z,1008.93
2022-08-04T02:55:57.634Z,1008.93
2022-08-04T02:56:57.612Z,1008.95
2022-08-04T02:57:57.623Z,1009.02
2022-08-04T02:58:57.629Z,1008.97
2022-08-04T02:59:57.584Z,1009.00
2022-08-04T03:00:57.665Z,1008.98
2022-08-04T03:01:58.405Z,1008.98
2022-08-04T03:02:57.571Z,1008.98
2022-08-04T03:03:57.558Z,1008.98
2022-08-04T03:04:57.523Z,1008.96
2022-08-04T03:06:00.647Z,1008.97
2022-08-04T03:06:57.505Z,1008.99
2022-08-04T03:07:57.528Z,1009.02
2022-08-04T03:08:57.490Z,1009.02
2022-08-04T03:09:57.472Z,1009.03
2022-08-04T03:10:57.455Z,1009.00
2022-08-04T03:11:57.538Z,1008.99
2022-08-04T03:12:58.680Z,1009.02
2022-08-04T03:13:57.431Z,1009.03
2022-08-04T03:14:57.419Z,1009.04
2022-08-04T03:15:57.399Z,1009.02
2022-08-04T03:16:57.409Z,1009.00
2022-08-04T03:17:57.398Z,1009.00
2022-08-04T03:18:57.422Z,1008.98
2022-08-04T03:19:57.366Z,1009.02
2022-08-04T03:20:57.367Z,1009.01
2022-08-04T03:21:57.344Z,1008.99
2022-08-04T03:23:12.581Z,1009.01
2022-08-04T03:23:58.313Z,1009.00
2022-08-04T03:24:57.295Z,1009.04
2022-08-04T03:25:57.785Z,1009.00
2022-08-04T03:26:57.273Z,1009.04
2022-08-04T03:27:57.278Z,1009.01
2022-08-04T03:28:57.253Z,1009.05
2022-08-04T03:29:57.239Z,1009.04
2022-08-04T03:30:57.232Z,1009.04
2022-08-04T03:31:57.272Z,1009.06
2022-08-04T03:32:57.221Z,1008.99
2022-08-04T03:33:57.200Z,1009.03
2022-08-04T03:34:57.188Z,1009.03
2022-08-04T03:35:57.183Z,1008.98
2022-08-04T03:36:57.171Z,1008.99
2022-08-04T03:37:57.259Z,1009.00
2022-08-04T03:38:57.584Z,1008.97
2022-08-04T03:39:57.140Z,1008.97
2022-08-04T03:40:57.121Z,1009.01
2022-08-04T03:42:04.206Z,1009.03
2022-08-04T03:42:58.114Z,1009.03
2022-08-04T03:43:59.747Z,1009.05
2022-08-04T03:44:57.093Z,1009.03
2022-08-04T03:45:57.073Z,1009.04
2022-08-04T03:46:57.048Z,1009.00
2022-08-04T03:47:57.049Z,1009.02
2022-08-04T03:48:57.035Z,1009.00
2022-08-04T03:49:57.016Z,1008.98
2022-08-04T03:50:57.015Z,1008.96
2022-08-04T03:51:56.994Z,1008.95
2022-08-04T03:52:56.993Z,1008.96
2022-08-04T03:53:57.035Z,1008.97
2022-08-04T03:54:56.957Z,1008.96
2022-08-04T03:55:56.949Z,1008.89
2022-08-04T03:56:56.940Z,1008.93
2022-08-04T03:57:56.934Z,1008.93
2022-08-04T03:58:56.910Z,1008.89
2022-08-04T03:59:56.954Z,1008.96
2022-08-04T04:00:56.891Z,1008.95
2022-08-04T04:02:02.700Z,1008.90
2022-08-04T04:02:57.953Z,1008.91
2022-08-04T04:03:56.864Z,1008.93
2022-08-04T04:04:56.843Z,1008.97
2022-08-04T04:05:59.997Z,1008.92
2022-08-04T04:06:57.831Z,1008.93
2022-08-04T04:08:01.318Z,1008.92
2022-08-04T04:08:56.810Z,1008.94
2022-08-04T04:10:01.221Z,1008.94
2022-08-04T04:10:57.776Z,1008.94
2022-08-04T04:11:57.813Z,1008.97
2022-08-04T04:12:56.781Z,1008.95
2022-08-04T04:13:56.763Z,1009.01
2022-08-04T04:14:56.731Z,1008.99
2022-08-04T04:15:56.737Z,1008.92
2022-08-04T04:16:56.714Z,1008.94
2022-08-04T04:17:56.696Z,1008.99
2022-08-04T04:18:56.706Z,1008.97
2022-08-04T04:19:58.297Z,1008.95
2022-08-04T04:20:56.731Z,1008.96
2022-08-04T04:21:56.660Z,1008.96
2022-08-04T04:22:56.647Z,1008.98
2022-08-04T04:23:56.648Z,1008.93
2022-08-04T04:24:56.624Z,1008.92
2022-08-04T04:25:56.697Z,1008.96
2022-08-04T04:26:56.593Z,1008.97
2022-08-04T04:27:56.585Z,1008.96
2022-08-04T04:29:01.575Z,1009.00
2022-08-04T04:29:57.562Z,1008.99
2022-08-04T04:30:56.546Z,1008.95
2022-08-04T04:31:56.546Z,1009.01
2022-08-04T04:32:56.526Z,1008.99
2022-08-04T04:33:56.636Z,1008.97
2022-08-04T04:34:56.505Z,1008.95
2022-08-04T04:35:56.498Z,1008.94
2022-08-04T04:36:56.483Z,1009.00
2022-08-04T04:37:56.477Z,1008.99
2022-08-04T04:38:56.561Z,1009.04
2022-08-04T04:39:56.504Z,1009.05
2022-08-04T04:40:56.430Z,1009.03
2022-08-04T04:41:56.440Z,1009.03
2022-08-04T04:42:56.424Z,1009.01
2022-08-04T04:43:56.420Z,1009.05
2022-08-04T04:44:56.410Z,1009.04
2022-08-04T04:45:56.447Z,1009.03
2022-08-04T04:46:56.366Z,1009.06
2022-08-04T04:48:07.632Z,1009.07
2022-08-04T04:48:57.371Z,1009.08
2022-08-04T04:49:56.335Z,1009.08
2022-08-04T04:50:56.330Z,1009.08
2022-08-04T04:51:56.319Z,1009.06
2022-08-04T04:52:56.301Z,1009.05
2022-08-04T04:54:00.453Z,1009.08
2022-08-04T04:54:56.284Z,1009.05
2022-08-04T04:55:56.263Z,1009.10
2022-08-04T04:56:56.259Z,1009.09
2022-08-04T04:57:56.255Z,1009.08
2022-08-04T04:58:56.247Z,1009.09
2022-08-04T04:59:56.228Z,1009.07
2022-08-04T05:00:56.209Z,1009.16
2022-08-04T05:01:56.201Z,1009.08
2022-08-04T05:03:00.369Z,1009.17
2022-08-04T05:03:56.187Z,1009.06
2022-08-04T05:04:56.169Z,1009.06
2022-08-04T05:05:56.164Z,1009.05
2022-08-04T05:06:56.141Z,1009.08
2022-08-04T05:07:56.137Z,1009.06
2022-08-04T05:08:56.141Z,1009.07
2022-08-04T05:09:56.108Z,1009.03
2022-08-04T05:10:56.102Z,1009.03
2022-08-04T05:11:56.134Z,1009.03
2022-08-04T05:14:32.022Z,1009.01
2022-08-04T05:14:36.356Z,1009.02
2022-08-04T05:14:57.047Z,1009.01
2022-08-04T05:15:56.044Z,1009.06
2022-08-04T05:16:56.027Z,1009.04
2022-08-04T05:17:56.061Z,1009.08
2022-08-04T05:18:56.011Z,1009.07
2022-08-04T05:19:56.010Z,1009.06
2022-08-04T05:20:56.004Z,1009.06
2022-08-04T05:21:55.965Z,1009.07
2022-08-04T05:22:55.966Z,1009.03
2022-08-04T05:23:55.948Z,1009.06
2022-08-04T05:24:56.030Z,1009.05
2022-08-04T05:25:59.832Z,1009.07
2022-08-04T05:26:55.912Z,1009.07
2022-08-04T05:27:55.938Z,1009.07
2022-08-04T05:28:55.890Z,1009.12
2022-08-04T05:29:55.893Z,1009.12
2022-08-04T05:30:55.897Z,1009.08
2022-08-04T05:31:55.874Z,1009.11
2022-08-04T05:32:57.387Z,1009.11
2022-08-04T05:33:55.846Z,1009.08
2022-08-04T05:34:55.835Z,1009.10
2022-08-04T05:36:20.579Z,1009.08
2022-08-04T05:36:56.861Z,1009.09
2022-08-04T05:38:01.203Z,1009.12
2022-08-04T05:38:56.795Z,1009.11
2022-08-04T05:39:55.786Z,1009.10
2022-08-04T05:40:55.754Z,1009.11
2022-08-04T05:42:04.650Z,1009.07
2022-08-04T05:42:56.735Z,1009.03
2022-08-04T05:43:55.719Z,1009.04
2022-08-04T05:44:55.794Z,1009.04
2022-08-04T05:45:55.704Z,1009.08
2022-08-04T05:46:55.691Z,1009.05
2022-08-04T05:47:55.673Z,1009.06
2022-08-04T05:48:55.657Z,1009.04
2022-08-04T05:50:02.081Z,1009.06
2022-08-04T05:51:00.777Z,1009.10
2022-08-04T05:51:55.628Z,1009.06
2022-08-04T05:52:59.901Z,1009.06
2022-08-04T05:53:56.613Z,1009.07
2022-08-04T05:54:55.614Z,1009.08
2022-08-04T05:55:58.447Z,1009.11
2022-08-04T05:56:55.605Z,1009.07
2022-08-04T05:57:55.835Z,1009.11
2022-08-04T05:58:55.547Z,1009.10
2022-08-04T05:59:55.565Z,1009.13
2022-08-04T06:00:55.521Z,1009.09
2022-08-04T06:01:57.257Z,1009.10
2022-08-04T06:02:55.556Z,1009.12
2022-08-04T06:03:55.495Z,1009.04
2022-08-04T06:04:55.492Z,1009.08
2022-08-04T06:05:55.474Z,1009.07
2022-08-04T06:06:55.467Z,1009.04
2022-08-04T06:08:07.736Z,1009.08
2022-08-04T06:08:56.451Z,1009.04
2022-08-04T06:09:55.453Z,1009.10
2022-08-04T06:10:55.420Z,1009.10
2022-08-04T06:12:01.937Z,1009.13
2022-08-04T06:12:56.445Z,1009.13
2022-08-04T06:13:55.388Z,1009.12
2022-08-04T06:14:59.704Z,1009.14
2022-08-04T06:15:55.352Z,1009.15
2022-08-04T06:16:55.344Z,1009.12
2022-08-04T06:19:59.163Z,1009.11
2022-08-04T06:20:00.625Z,1009.13
2022-08-04T06:20:17.886Z,1009.16
2022-08-04T06:20:56.305Z,1009.14
2022-08-04T06:21:55.294Z,1009.16
2022-08-04T06:22:55.304Z,1009.17
2022-08-04T06:24:02.350Z,1009.17
2022-08-04T06:24:56.278Z,1009.18
2022-08-04T06:25:55.252Z,1009.19
2022-08-04T06:26:55.232Z,1009.16
2022-08-04T06:27:55.221Z,1009.15
2022-08-04T06:28:55.207Z,1009.16
2022-08-04T06:29:55.233Z,1009.16
2022-08-04T06:30:55.202Z,1009.20
2022-08-04T06:32:27.107Z,1009.13
2022-08-04T06:33:03.947Z,1009.18
2022-08-04T06:33:56.158Z,1009.19
2022-08-04T06:34:55.148Z,1009.22
2022-08-04T06:35:55.158Z,1009.20
2022-08-04T06:36:55.186Z,1009.21
2022-08-04T06:38:00.397Z,1009.16
2022-08-04T06:38:58.819Z,1009.16
2022-08-04T06:39:55.087Z,1009.21
2022-08-04T06:40:55.087Z,1009.22
2022-08-04T06:42:16.953Z,1009.22
2022-08-04T06:42:56.064Z,1009.18
2022-08-04T06:43:55.047Z,1009.18
2022-08-04T06:44:55.032Z,1009.19
2022-08-04T06:45:55.135Z,1009.22
2022-08-04T06:46:55.009Z,1009.20
2022-08-04T06:47:55.023Z,1009.19
2022-08-04T06:48:54.985Z,1009.15
2022-08-04T06:51:25.532Z,1009.11
2022-08-04T06:51:26.621Z,1009.13
2022-08-04T06:51:55.978Z,1009.17
2022-08-04T06:52:54.947Z,1009.16
2022-08-04T06:53:54.944Z,1009.19
2022-08-04T06:54:54.916Z,1009.15
2022-08-04T06:55:55.007Z,1009.15
2022-08-04T06:56:54.900Z,1009.14
2022-08-04T06:57:58.385Z,1009.14
2022-08-04T06:58:55.879Z,1009.17
2022-08-04T06:59:54.862Z,1009.16
2022-08-04T07:00:54.870Z,1009.15
2022-08-04T07:01:54.886Z,1009.18
2022-08-04T07:02:54.876Z,1009.18
2022-08-04T07:03:54.822Z,1009.15
2022-08-04T07:04:54.817Z,1009.19
2022-08-04T07:05:54.809Z,1009.20
2022-08-04T07:06:54.791Z,1009.20
2022-08-04T07:07:58.219Z,1009.16
2022-08-04T07:08:54.765Z,1009.22
2022-08-04T07:09:54.762Z,1009.17
2022-08-04T07:10:54.753Z,1009.24
2022-08-04T07:11:54.772Z,1009.19
2022-08-04T07:12:54.728Z,1009.21
2022-08-04T07:13:54.706Z,1009.20
2022-08-04T07:14:54.708Z,1009.17
2022-08-04T07:15:54.711Z,1009.23
2022-08-04T07:16:54.674Z,1009.24
2022-08-04T07:17:54.664Z,1009.22
2022-08-04T07:18:54.719Z,1009.21
2022-08-04T07:19:54.633Z,1009.19
2022-08-04T07:20:54.649Z,1009.19
2022-08-04T07:22:18.879Z,1009.15
2022-08-04T07:22:55.618Z,1009.15
2022-08-04T07:23:54.591Z,1009.12
2022-08-04T07:24:54.588Z,1009.16
2022-08-04T07:25:59.422Z,1009.15
2022-08-04T07:26:55.575Z,1009.15
2022-08-04T07:27:54.564Z,1009.07
2022-08-04T07:28:54.562Z,1009.05
2022-08-04T07:29:54.523Z,1009.07
2022-08-04T07:30:54.553Z,1009.10
2022-08-04T07:31:54.637Z,1009.04
2022-08-04T07:32:54.495Z,1009.04
2022-08-04T07:34:21.334Z,1009.09
2022-08-04T07:34:55.541Z,1009.07
2022-08-04T07:36:05.928Z,1009.07
2022-08-04T07:36:56.093Z,1009.03
2022-08-04T07:37:54.441Z,1009.03
2022-08-04T07:38:54.556Z,1009.05
2022-08-04T07:39:54.464Z,1009.01
2022-08-04T07:40:54.420Z,1009.04
2022-08-04T07:41:54.401Z,1009.04
2022-08-04T07:42:54.385Z,1009.02
2022-08-04T07:43:54.429Z,1009.04
2022-08-04T07:44:54.371Z,1009.08
2022-08-04T07:45:54.371Z,1009.08
2022-08-04T07:46:54.345Z,1009.08
2022-08-04T07:48:05.296Z,1009.02
2022-08-04T07:48:55.311Z,1009.03
2022-08-04T07:49:57.714Z,1009.02
2022-08-04T07:50:54.314Z,1009.00
2022-08-04T07:51:54.292Z,1009.01
2022-08-04T07:53:15.364Z,1009.03
2022-08-04T07:53:56.442Z,1009.00
2022-08-04T07:54:54.249Z,1009.01
2022-08-04T07:55:54.259Z,1008.98
2022-08-04T07:56:54.226Z,1009.01
2022-08-04T07:57:54.216Z,1009.02
2022-08-04T07:58:54.208Z,1009.00
2022-08-04T07:59:54.246Z,1008.98
2022-08-04T08:00:54.201Z,1009.02
2022-08-04T08:01:54.175Z,1009.00
2022-08-04T08:02:54.161Z,1008.98
2022-08-04T08:03:54.251Z,1009.01
2022-08-04T08:04:54.145Z,1008.97
2022-08-04T08:06:17.600Z,1008.99
2022-08-04T08:06:55.109Z,1009.00
2022-08-04T08:07:54.944Z,1008.96
2022-08-04T08:08:54.094Z,1008.91
2022-08-04T08:09:54.080Z,1008.94
2022-08-04T08:10:54.198Z,1008.95
2022-08-04T08:12:36.859Z,1008.99
2022-08-04T08:12:55.061Z,1008.99
2022-08-04T08:13:54.047Z,1008.94
2022-08-04T08:14:54.036Z,1009.00
2022-08-04T08:15:54.035Z,1008.95
2022-08-04T08:16:54.005Z,1008.98
2022-08-04T08:17:57.819Z,1008.96
2022-08-04T08:18:54.999Z,1008.92
2022-08-04T08:19:53.971Z,1008.98
2022-08-04T08:20:53.990Z,1008.97
2022-08-04T08:21:59.162Z,1008.91
2022-08-04T08:22:54.938Z,1008.88
2022-08-04T08:23:54.054Z,1008.85
2022-08-04T08:24:53.917Z,1008.87
2022-08-04T08:25:53.935Z,1008.87
2022-08-04T08:26:53.889Z,1008.86
2022-08-04T08:27:55.678Z,1008.86
2022-08-04T08:28:53.876Z,1008.79
2022-08-04T08:29:53.857Z,1008.85
2022-08-04T08:30:53.873Z,1008.85
2022-08-04T08:31:56.164Z,1008.84
2022-08-04T08:32:53.833Z,1008.84
2022-08-04T08:33:53.886Z,1008.81
2022-08-04T08:34:53.818Z,1008.77
2022-08-04T08:35:54.921Z,1008.84
2022-08-04T08:36:53.824Z,1008.81
2022-08-04T08:37:53.775Z,1008.82
2022-08-04T08:38:53.806Z,1008.78
2022-08-04T08:39:53.754Z,1008.75
2022-08-04T08:40:53.758Z,1008.80
2022-08-04T08:41:53.736Z,1008.79
2022-08-04T08:42:53.717Z,1008.76
2022-08-04T08:44:05.152Z,1008.82
2022-08-04T08:44:57.786Z,1008.82
2022-08-04T08:45:53.702Z,1008.72
2022-08-04T08:46:53.689Z,1008.76
2022-08-04T08:48:05.146Z,1008.77
2022-08-04T08:48:54.652Z,1008.79
2022-08-04T08:50:02.439Z,1008.79
2022-08-04T08:50:54.645Z,1008.83
2022-08-04T08:51:53.644Z,1008.83
2022-08-04T08:52:56.186Z,1008.84
2022-08-04T08:53:54.590Z,1008.80
2022-08-04T08:54:53.588Z,1008.80
2022-08-04T08:55:53.652Z,1008.75
2022-08-04T08:56:53.565Z,1008.83
2022-08-04T08:58:00.175Z,1008.81
2022-08-04T08:58:54.580Z,1008.76
2022-08-04T08:59:53.547Z,1008.80
2022-08-04T09:00:53.534Z,1008.81
2022-08-04T09:01:53.641Z,1008.79
2022-08-04T09:03:04.126Z,1008.79
2022-08-04T09:03:54.575Z,1008.82
2022-08-04T09:04:53.497Z,1008.79
2022-08-04T09:05:53.478Z,1008.85
2022-08-04T09:06:53.474Z,1008.91
2022-08-04T09:07:53.461Z,1008.97
2022-08-04T09:08:53.438Z,1009.01
2022-08-04T09:09:53.506Z,1009.02
2022-08-04T09:10:53.461Z,1009.06
2022-08-04T09:11:53.400Z,1009.11
2022-08-04T09:12:53.399Z,1009.08
2022-08-04T09:13:53.384Z,1009.14
2022-08-04T09:14:53.374Z,1009.17
2022-08-04T09:15:54.367Z,1009.18
2022-08-04T09:16:53.367Z,1009.15
2022-08-04T09:17:53.336Z,1009.20
2022-08-04T09:18:53.328Z,1009.17
2022-08-04T09:19:53.324Z,1009.17
2022-08-04T09:20:53.338Z,1009.22
2022-08-04T09:21:53.306Z,1009.19
2022-08-04T09:22:53.307Z,1009.24
2022-08-04T09:23:53.274Z,1009.22
2022-08-04T09:24:53.268Z,1009.26
2022-08-04T09:25:53.261Z,1009.28
2022-08-04T09:26:59.737Z,1009.27
2022-08-04T09:27:54.241Z,1009.24
2022-08-04T09:28:54.686Z,1009.26
2022-08-04T09:29:53.219Z,1009.24
2022-08-04T09:30:53.207Z,1009.26
2022-08-04T09:32:06.951Z,1009.29
2022-08-04T09:32:54.188Z,1009.32
2022-08-04T09:33:53.181Z,1009.30
2022-08-04T09:35:03.449Z,1009.24
2022-08-04T09:35:54.179Z,1009.19
2022-08-04T09:36:53.171Z,1009.16
2022-08-04T09:37:53.150Z,1009.24
2022-08-04T09:38:53.288Z,1009.20
2022-08-04T09:39:53.140Z,1009.19
2022-08-04T09:40:56.878Z,1009.22
2022-08-04T09:41:53.128Z,1009.22
2022-08-04T09:42:53.122Z,1009.23
2022-08-04T09:44:43.218Z,1009.26
2022-08-04T09:44:57.633Z,1009.27
2022-08-04T09:45:54.110Z,1009.27
2022-08-04T09:46:53.073Z,1009.26
2022-08-04T09:47:53.051Z,1009.29
2022-08-04T09:48:53.047Z,1009.24
2022-08-04T09:49:53.035Z,1009.24
2022-08-04T09:50:53.071Z,1009.23
2022-08-04T09:51:57.261Z,1009.27
2022-08-04T09:52:54.047Z,1009.24
2022-08-04T09:53:53.000Z,1009.24
2022-08-04T09:54:52.995Z,1009.21
2022-08-04T09:55:53.545Z,1009.11
2022-08-04T09:56:52.987Z,1009.13
2022-08-04T09:57:52.957Z,1009.14
2022-08-04T09:58:52.984Z,1009.16
2022-08-04T09:59:52.940Z,1009.15
2022-08-04T10:00:52.945Z,1009.12
2022-08-04T10:01:59.014Z,1009.15
2022-08-04T10:02:54.030Z,1009.13
2022-08-04T10:03:52.901Z,1009.17
2022-08-04T10:04:52.955Z,1009.14
2022-08-04T10:05:52.889Z,1009.12
2022-08-04T10:06:52.885Z,1009.15
2022-08-04T10:07:59.644Z,1009.19
2022-08-04T10:08:56.979Z,1009.14
2022-08-04T10:09:52.852Z,1009.15
2022-08-04T10:10:52.853Z,1009.11
2022-08-04T10:11:55.359Z,1009.06
2022-08-04T10:12:52.819Z,1009.08
2022-08-04T10:13:52.830Z,1009.05
2022-08-04T10:14:52.811Z,1009.05
2022-08-04T10:15:52.797Z,1008.88
2022-08-04T10:16:52.836Z,1008.81
2022-08-04T10:17:52.876Z,1008.83
2022-08-04T10:18:52.776Z,1008.69
2022-08-04T10:19:52.759Z,1008.79
2022-08-04T10:20:57.385Z,1008.76
2022-08-04T10:21:59.691Z,1008.71
2022-08-04T10:23:10.562Z,1008.72
2022-08-04T10:23:56.076Z,1008.73
2022-08-04T10:24:53.714Z,1008.70
2022-08-04T10:26:06.195Z,1008.67
2022-08-04T10:26:57.357Z,1008.61
2022-08-04T10:27:52.726Z,1008.55
2022-08-04T10:28:52.675Z,1008.50
2022-08-04T10:29:52.665Z,1008.51
2022-08-04T10:30:52.653Z,1008.54
2022-08-04T10:31:52.666Z,1008.48
2022-08-04T10:32:52.638Z,1008.49
2022-08-04T10:33:52.643Z,1008.52
2022-08-04T10:34:52.613Z,1008.75
2022-08-04T10:35:52.611Z,1008.53
2022-08-04T10:36:52.615Z,1008.50
2022-08-04T10:37:54.628Z,1008.71
2022-08-04T10:38:53.665Z,1008.71
2022-08-04T10:39:52.679Z,1008.71
2022-08-04T10:40:53.571Z,1008.65
2022-08-04T10:41:52.562Z,1008.58
2022-08-04T10:42:52.538Z,1008.47
2022-08-04T10:43:52.529Z,1008.40
2022-08-04T10:44:57.305Z,1008.48
2022-08-04T10:45:56.074Z,1008.40
2022-08-04T10:46:52.525Z,1008.50
2022-08-04T10:47:53.502Z,1008.42
2022-08-04T10:48:52.479Z,1008.38
2022-08-04T10:49:52.469Z,1008.38
2022-08-04T10:50:56.889Z,1008.44
2022-08-04T10:51:57.263Z,1008.45
2022-08-04T10:52:53.442Z,1008.50
2022-08-04T10:53:52.433Z,1008.63
2022-08-04T10:54:52.429Z,1008.55
2022-08-04T10:56:06.297Z,1008.57
2022-08-04T10:56:56.791Z,1008.44
2022-08-04T10:57:52.437Z,1008.31
2022-08-04T10:58:52.393Z,1008.34
2022-08-04T10:59:52.384Z,1008.26
2022-08-04T11:00:53.357Z,1008.30
2022-08-04T11:02:03.301Z,1008.20
2022-08-04T11:02:53.388Z,1008.17
2022-08-04T11:03:52.325Z,1008.20
2022-08-04T11:04:52.350Z,1008.20
2022-08-04T11:05:52.307Z,1008.14
2022-08-04T11:06:52.308Z,1008.15
2022-08-04T11:07:52.290Z,1008.10
2022-08-04T11:08:52.276Z,1008.20
2022-08-04T11:09:52.263Z,1008.15
2022-08-04T11:10:52.281Z,1008.10
2022-08-04T11:12:01.448Z,1008.12
2022-08-04T11:12:53.234Z,1008.14
2022-08-04T11:13:52.224Z,1008.09
2022-08-04T11:14:52.223Z,1008.15
2022-08-04T11:15:52.200Z,1008.11
2022-08-04T11:16:52.211Z,1008.09
2022-08-04T11:17:52.232Z,1008.06
2022-08-04T11:18:52.170Z,1008.07
2022-08-04T11:19:54.508Z,1008.00
2022-08-04T11:20:53.156Z,1007.98
2022-08-04T11:21:52.165Z,1007.97
2022-08-04T11:22:52.147Z,1008.12
2022-08-04T11:23:52.132Z,1008.08
2022-08-04T11:24:52.172Z,1008.05
2022-08-04T11:25:52.467Z,1008.03
2022-08-04T11:26:52.106Z,1007.99
2022-08-04T11:27:52.081Z,1008.04
2022-08-04T11:29:03.309Z,1008.00
2022-08-04T11:29:53.073Z,1007.98
2022-08-04T11:30:52.065Z,1007.91
2022-08-04T11:31:52.392Z,1007.90
2022-08-04T11:32:52.030Z,1007.93
2022-08-04T11:33:52.017Z,1007.90
2022-08-04T11:34:52.851Z,1007.91
2022-08-04T11:35:51.997Z,1007.94
2022-08-04T11:36:52.006Z,1007.93
2022-08-04T11:37:52.051Z,1007.99
2022-08-04T11:38:52.486Z,1007.95
2022-08-04T11:39:51.965Z,1007.94
2022-08-04T11:41:02.767Z,1007.99
2022-08-04T11:41:52.945Z,1007.95
2022-08-04T11:42:51.927Z,1007.91
2022-08-04T11:44:00.692Z,1007.93
2022-08-04T11:44:52.898Z,1007.90
2022-08-04T11:45:51.898Z,1007.91
2022-08-04T11:46:51.899Z,1007.87
2022-08-04T11:47:51.878Z,1007.91
2022-08-04T11:48:51.873Z,1007.89
2022-08-04T11:49:57.341Z,1007.89
2022-08-04T11:50:54.007Z,1007.90
2022-08-04T11:51:51.845Z,1007.92
2022-08-04T11:52:51.820Z,1008.00
2022-08-04T11:53:51.814Z,1008.00
2022-08-04T11:54:52.825Z,1007.94
2022-08-04T11:56:08.279Z,1007.91
2022-08-04T11:56:52.835Z,1007.86
2022-08-04T11:57:54.310Z,1007.90
2022-08-04T11:58:51.758Z,1007.89
2022-08-04T11:59:51.747Z,1007.88
2022-08-04T12:00:51.741Z,1007.80
2022-08-04T12:01:51.861Z,1007.84
2022-08-04T12:02:51.754Z,1007.88
2022-08-04T12:03:59.727Z,1007.82
2022-08-04T12:04:52.698Z,1007.84
2022-08-04T12:05:51.683Z,1007.82